createdAt,value
2023-03-17T00:03:43.812Z,2.4
2023-03-17T00:07:43.547Z,2.4
2023-03-17T00:11:43.773Z,2.4
2023-03-17T00:15:42.819Z,2.4
2023-03-17T00:19:43.170Z,2.4
2023-03-17T00:23:43.125Z,17112.7
2023-03-17T00:27:43.467Z,17112.7
2023-03-17T00:31:44.175Z,17112.7
2023-03-17T00:35:43.526Z,17112.7
2023-03-17T00:39:42.935Z,17112.7
2023-03-17T00:43:42.756Z,17112.7
2023-03-17T00:47:44.285Z,17112.7
2023-03-17T00:51:43.020Z,17112.7
2023-03-17T00:55:43.443Z,17112.7
2023-03-17T00:59:43.300Z,17112.7
2023-03-17T01:03:43.674Z,17112.7
2023-03-17T01:07:44.042Z,17112.7
2023-03-17T01:11:43.418Z,17112.7
2023-03-17T01:15:45.893Z,17112.7
2023-03-17T01:19:43.690Z,17112.7
2023-03-17T01:23:43.480Z,17112.7
2023-03-17T01:27:45.026Z,17112.7
2023-03-17T01:31:43.420Z,13999.6
2023-03-17T01:35:42.965Z,13999.6
2023-03-17T01:39:42.932Z,13999.6
2023-03-17T01:43:43.089Z,13999.6
2023-03-17T01:47:43.241Z,13999.6
2023-03-17T01:51:43.359Z,13999.6
2023-03-17T01:55:42.951Z,13999.6
2023-03-17T01:59:43.304Z,13999.6
2023-03-17T02:03:43.071Z,13999.6
2023-03-17T02:07:55.121Z,13999.6
2023-03-17T02:11:43.248Z,13999.6
2023-03-17T02:15:43.078Z,13999.6
2023-03-17T02:19:43.397Z,13999.6
2023-03-17T02:23:43.212Z,13999.6
2023-03-17T02:27:43.527Z,13999.6
2023-03-17T02:31:43.791Z,13999.6
2023-03-17T02:35:43.620Z,13999.6
2023-03-17T02:39:43.291Z,13999.6
2023-03-17T02:43:43.278Z,13999.6
2023-03-17T02:47:43.608Z,13999.6
2023-03-17T02:51:43.367Z,13999.6
2023-03-17T02:55:43.554Z,13999.6
2023-03-17T02:59:43.467Z,13999.6
2023-03-17T03:03:44.124Z,13999.6
2023-03-17T03:07:44.602Z,13999.6
2023-03-17T03:11:43.776Z,13999.6
2023-03-17T03:15:43.757Z,13999.6
2023-03-17T03:19:43.634Z,13999.6
2023-03-17T03:23:43.601Z,13999.6
2023-03-17T03:27:43.468Z,13999.6
2023-03-17T03:31:44.227Z,13999.6
2023-03-17T03:35:43.060Z,13999.6
2023-03-17T03:39:42.948Z,13999.6
2023-03-17T03:43:56.998Z,13999.6
2023-03-17T03:47:43.956Z,13999.6
2023-03-17T03:51:43.501Z,13999.6
2023-03-17T03:55:43.500Z,13999.6
2023-03-17T03:59:43.318Z,13999.6
2023-03-17T04:03:43.487Z,13999.6
2023-03-17T04:07:43.214Z,13999.6
2023-03-17T04:11:43.393Z,13999.6
2023-03-17T04:15:43.537Z,13999.6
2023-03-17T04:19:44.141Z,13999.6
2023-03-17T04:23:43.817Z,13999.6
2023-03-17T04:27:42.968Z,13999.6
2023-03-17T04:31:43.380Z,13999.6
2023-03-17T04:35:43.777Z,13999.6
2023-03-17T04:39:43.661Z,13999.6
2023-03-17T04:43:43.908Z,13999.6
2023-03-17T04:47:42.870Z,13999.6
2023-03-17T04:51:45.710Z,13999.6
2023-03-17T04:55:42.904Z,13999.6
2023-03-17T04:59:58.366Z,13999.6
2023-03-17T05:04:00.380Z,13999.6
2023-03-17T05:07:45.481Z,13999.6
2023-03-17T05:11:43.913Z,13999.6
2023-03-17T05:15:42.792Z,13999.6
2023-03-17T05:19:46.401Z,13999.6
2023-03-17T05:23:42.932Z,13999.6
2023-03-17T05:27:43.610Z,13999.6
2023-03-17T05:31:45.311Z,13999.6
2023-03-17T05:35:43.765Z,13999.6
2023-03-17T05:39:43.625Z,13999.6
2023-03-17T05:43:43.620Z,13999.6
2023-03-17T05:47:44.042Z,13999.6
2023-03-17T05:51:42.924Z,13999.6
2023-03-17T05:55:43.467Z,13999.6
2023-03-17T05:59:43.491Z,13999.6
2023-03-17T06:03:44.189Z,13999.6
2023-03-17T06:08:01.668Z,13999.6
2023-03-17T06:11:43.455Z,13999.6
2023-03-17T06:15:46.397Z,13999.6
2023-03-17T06:19:43.812Z,13999.6
2023-03-17T06:24:00.373Z,13999.6
2023-03-17T06:27:43.023Z,13999.6
2023-03-17T06:31:43.663Z,13999.6
2023-03-17T06:35:43.459Z,13999.6
2023-03-17T06:39:44.143Z,13999.6
2023-03-17T06:43:42.766Z,13999.6
2023-03-17T06:47:43.360Z,13999.6
2023-03-17T06:51:43.337Z,13999.6
2023-03-17T06:55:44.150Z,13999.6
2023-03-17T06:59:43.637Z,13999.6
2023-03-17T07:03:43.122Z,13999.6
2023-03-17T07:07:43.405Z,13999.6
2023-03-17T07:11:43.373Z,13999.6
2023-03-17T07:15:44.144Z,13999.6
2023-03-17T07:19:43.291Z,13999.6
2023-03-17T07:23:43.817Z,13999.6
2023-03-17T07:27:45.745Z,13999.6
2023-03-17T07:31:44.071Z,13999.6
2023-03-17T07:35:44.224Z,13999.6
2023-03-17T07:39:45.779Z,92.23
2023-03-17T07:43:43.240Z,92.23
2023-03-17T07:47:43.535Z,16.52
2023-03-17T07:51:43.358Z,16.52
2023-03-17T07:55:45.231Z,16.52
2023-03-17T07:59:46.293Z,16.52
2023-03-17T08:04:04.749Z,16.52
2023-03-17T08:07:42.949Z,16.52
2023-03-17T08:11:44.106Z,16.52
2023-03-17T08:15:43.771Z,16.52
2023-03-17T08:19:42.811Z,16.52
2023-03-17T08:23:43.061Z,16.52
2023-03-17T08:27:45.950Z,16.52
2023-03-17T08:31:47.812Z,16.52
2023-03-17T08:35:44.109Z,16.52
2023-03-17T08:39:43.194Z,16.52
2023-03-17T08:43:43.623Z,16.52
2023-03-17T08:47:44.070Z,16.52
2023-03-17T08:51:47.077Z,34.24
2023-03-17T08:55:43.605Z,35.11
2023-03-17T08:59:43.407Z,2992.83
2023-03-17T09:03:43.680Z,1426.36
2023-03-17T09:07:59.674Z,3.49
2023-03-17T09:11:43.586Z,686.34
2023-03-17T09:15:52.541Z,513.63
2023-03-17T09:19:43.614Z,513.63
2023-03-17T09:23:43.588Z,423.49
2023-03-17T09:27:43.282Z,373.78
2023-03-17T09:31:44.104Z,0.99
2023-03-17T09:35:43.370Z,0.77
2023-03-17T09:39:43.545Z,0.59
2023-03-17T09:43:43.201Z,0.56
2023-03-17T09:47:43.913Z,201.79
2023-03-17T09:51:43.022Z,186.35
2023-03-17T09:55:43.152Z,186.35
2023-03-17T09:59:42.844Z,0.5
2023-03-17T10:03:44.024Z,164.65
2023-03-17T10:07:43.675Z,161.2
2023-03-17T10:11:43.455Z,0.43
2023-03-17T10:15:43.770Z,0.38
2023-03-17T10:19:43.254Z,135.22
2023-03-17T10:23:43.144Z,0.4
2023-03-17T10:27:43.092Z,0.36
2023-03-17T10:31:43.902Z,0.35
2023-03-17T10:35:45.762Z,132.17
2023-03-17T10:39:56.064Z,151.12
2023-03-17T10:43:43.513Z,151.12
2023-03-17T10:47:43.986Z,164.65
2023-03-17T10:51:45.849Z,114.8
2023-03-17T10:55:43.725Z,0.3
2023-03-17T10:59:44.586Z,0.27
2023-03-17T11:03:42.850Z,0.3
2023-03-17T11:07:42.814Z,0.3
2023-03-17T11:11:43.888Z,0.33
2023-03-17T11:15:43.106Z,0.37
2023-03-17T11:19:43.030Z,0.37
2023-03-17T11:23:43.287Z,161.2
2023-03-17T11:27:43.195Z,0.45
2023-03-17T11:31:45.228Z,171.69
2023-03-17T11:35:43.587Z,0.49
2023-03-17T11:39:43.516Z,175.28
2023-03-17T11:43:43.535Z,171.69
2023-03-17T11:47:43.427Z,0.51
2023-03-17T11:51:43.494Z,209.81
2023-03-17T11:55:45.131Z,0.57
2023-03-17T11:59:43.295Z,0.61
2023-03-17T12:03:43.212Z,0.65
2023-03-17T12:07:43.105Z,243.95
2023-03-17T12:11:44.008Z,0.67
2023-03-17T12:15:43.834Z,0.7
2023-03-17T12:19:43.717Z,0.7
2023-03-17T12:23:43.612Z,257.63
2023-03-17T12:27:43.540Z,0.67
2023-03-17T12:31:43.630Z,0.66
2023-03-17T12:35:44.340Z,0.62
2023-03-17T12:39:43.332Z,0.6
2023-03-17T12:43:43.725Z,222.22
2023-03-17T12:47:43.821Z,0.59
2023-03-17T12:51:43.994Z,213.89
2023-03-17T12:55:44.270Z,213.89
2023-03-17T12:59:45.379Z,0.57
2023-03-17T13:03:43.614Z,0.61
2023-03-17T13:07:43.484Z,0.62
2023-03-17T13:11:43.650Z,0.67
2023-03-17T13:15:44.254Z,248.45
2023-03-17T13:19:43.499Z,248.45
2023-03-17T13:23:43.458Z,235.1
2023-03-17T13:27:43.449Z,226.46
2023-03-17T13:31:44.191Z,226.46
2023-03-17T13:35:43.604Z,230.75
2023-03-17T13:40:04.963Z,0.61
2023-03-17T13:43:58.626Z,0.61
2023-03-17T13:47:44.134Z,0.64
2023-03-17T13:51:52.777Z,239.5
2023-03-17T13:55:43.909Z,239.5
2023-03-17T13:59:43.270Z,235.1
2023-03-17T14:03:43.343Z,0.62
2023-03-17T14:07:43.216Z,0.62
2023-03-17T14:11:43.169Z,0.61
2023-03-17T14:15:54.398Z,0.59
2023-03-17T14:19:43.309Z,0.6
2023-03-17T14:23:43.338Z,226.46
2023-03-17T14:27:43.381Z,0.62
2023-03-17T14:31:43.950Z,0.64
2023-03-17T14:35:44.453Z,248.45
2023-03-17T14:39:43.779Z,0.67
2023-03-17T14:43:43.527Z,0.68
2023-03-17T14:47:46.047Z,267.02
2023-03-17T14:51:43.874Z,0.75
2023-03-17T14:55:44.220Z,0.75
2023-03-17T14:59:43.622Z,0.77
2023-03-17T15:03:43.971Z,0.79
2023-03-17T15:07:45.351Z,0.79
2023-03-17T15:11:43.401Z,0.82
2023-03-17T15:15:43.267Z,312.11
2023-03-17T15:19:43.229Z,0.84
2023-03-17T15:23:43.399Z,0.86
2023-03-17T15:27:43.645Z,317.41
2023-03-17T15:31:55.698Z,317.41
2023-03-17T15:35:43.671Z,0.86
2023-03-17T15:39:43.358Z,312.11
2023-03-17T15:43:43.970Z,317.41
2023-03-17T15:47:43.878Z,317.41
2023-03-17T15:51:43.734Z,0.84
2023-03-17T15:55:43.716Z,0.86
2023-03-17T15:59:43.509Z,0.87
2023-03-17T16:03:43.002Z,0.84
2023-03-17T16:07:46.027Z,0.84
2023-03-17T16:11:42.920Z,0.86
2023-03-17T16:15:56.586Z,0.86
2023-03-17T16:19:43.284Z,322.77
2023-03-17T16:23:43.149Z,317.41
2023-03-17T16:27:56.921Z,322.77
2023-03-17T16:31:44.265Z,0.87
2023-03-17T16:35:43.471Z,0.87
2023-03-17T16:39:43.478Z,322.77
2023-03-17T16:43:58.509Z,0.87
2023-03-17T16:47:44.165Z,0.87
2023-03-17T16:51:42.786Z,0.87
2023-03-17T16:55:43.157Z,328.19
2023-03-17T16:59:43.050Z,322.77
2023-03-17T17:03:46.531Z,0.89
2023-03-17T17:07:43.311Z,328.19
2023-03-17T17:11:43.636Z,0.89
2023-03-17T17:15:43.836Z,0.89
2023-03-17T17:19:45.773Z,328.19
2023-03-17T17:23:43.773Z,328.19
2023-03-17T17:27:43.419Z,328.19
2023-03-17T17:31:43.718Z,328.19
2023-03-17T17:35:44.541Z,328.19
2023-03-17T17:39:43.575Z,328.19
2023-03-17T17:43:43.949Z,328.19
2023-03-17T17:47:43.999Z,328.19
2023-03-17T17:51:43.742Z,328.19
2023-03-17T17:55:43.696Z,328.19
2023-03-17T17:59:44.095Z,328.19
2023-03-17T18:03:43.503Z,328.19
2023-03-17T18:07:43.213Z,328.19
2023-03-17T18:11:43.285Z,328.19
2023-03-17T18:15:43.462Z,328.19
2023-03-17T18:19:43.705Z,328.19
2023-03-17T18:23:43.661Z,10.22
2023-03-17T18:27:43.070Z,10.22
2023-03-17T18:31:43.507Z,4.98
2023-03-17T18:35:43.245Z,4.98
2023-03-17T18:39:43.235Z,4.98
2023-03-17T18:43:43.440Z,4.98
2023-03-17T18:47:44.182Z,4.98
2023-03-17T18:51:43.098Z,4.98
2023-03-17T18:55:44.622Z,4.98
2023-03-17T18:59:43.404Z,4.98
2023-03-17T19:03:43.956Z,4.98
2023-03-17T19:07:43.712Z,4.98
2023-03-17T19:11:42.945Z,4.98
2023-03-17T19:15:42.929Z,4.98
2023-03-17T19:19:43.264Z,4.98
2023-03-17T19:23:43.334Z,4.98
2023-03-17T19:27:43.754Z,4.98
2023-03-17T19:31:44.012Z,4.98
2023-03-17T19:35:42.972Z,4.98
2023-03-17T19:39:43.056Z,4.98
2023-03-17T19:44:02.729Z,4.98
2023-03-17T19:47:44.104Z,4.98
2023-03-17T19:51:42.665Z,4.98
2023-03-17T19:55:43.572Z,4.98
2023-03-17T19:59:42.995Z,4.98
2023-03-17T20:03:43.213Z,4.98
2023-03-17T20:07:43.584Z,4.98
2023-03-17T20:11:43.740Z,4.98
2023-03-17T20:15:43.912Z,4.98
2023-03-17T20:19:43.930Z,4.98
2023-03-17T20:23:43.718Z,4.98
2023-03-17T20:27:43.182Z,4.98
2023-03-17T20:31:43.966Z,4.98
2023-03-17T20:35:43.525Z,7256.83
2023-03-17T20:39:43.861Z,20.13
2023-03-17T20:43:43.698Z,20.13
2023-03-17T20:47:44.309Z,20.13
2023-03-17T20:51:43.027Z,20.13
2023-03-17T20:55:42.838Z,20.13
2023-03-17T20:59:42.868Z,20.13
2023-03-17T21:03:43.444Z,20.13
2023-03-17T21:07:45.253Z,20.13
2023-03-17T21:11:43.271Z,20.13
2023-03-17T21:15:43.685Z,20.13
2023-03-17T21:19:43.571Z,20.13
2023-03-17T21:23:43.402Z,20.13
2023-03-17T21:27:43.716Z,20.13
2023-03-17T21:31:43.974Z,20.13
2023-03-17T21:35:43.978Z,20.13
2023-03-17T21:39:43.462Z,20.13
2023-03-17T21:43:44.015Z,16.37
2023-03-17T21:47:43.768Z,16.37
2023-03-17T21:51:46.727Z,16.37
2023-03-17T21:55:43.902Z,16.37
2023-03-17T21:59:43.687Z,16.37
2023-03-17T22:03:46.830Z,16.37
2023-03-17T22:07:43.525Z,16.37
2023-03-17T22:11:43.845Z,16.37
2023-03-17T22:15:42.845Z,16.37
2023-03-17T22:19:44.060Z,16.37
2023-03-17T22:23:43.295Z,16.37
2023-03-17T22:27:45.549Z,16.37
2023-03-17T22:31:43.524Z,16.37
2023-03-17T22:35:43.690Z,16.37
2023-03-17T22:39:43.904Z,16.37
2023-03-17T22:43:43.581Z,16.37
2023-03-17T22:47:43.252Z,16.37
2023-03-17T22:51:42.990Z,16.37
2023-03-17T22:55:43.226Z,16.37
2023-03-17T22:59:43.250Z,16.37
2023-03-17T23:03:43.465Z,16.37
2023-03-17T23:07:52.276Z,16.37
2023-03-17T23:11:43.632Z,16.37
2023-03-17T23:15:43.975Z,16.37
2023-03-17T23:19:43.508Z,16.37
2023-03-17T23:23:43.014Z,16.37
2023-03-17T23:27:43.055Z,16.37
2023-03-17T23:31:43.924Z,16.37
2023-03-17T23:35:43.435Z,16.37
2023-03-17T23:39:43.368Z,16.37
2023-03-17T23:43:43.610Z,16.37
2023-03-17T23:47:43.886Z,16.37
2023-03-17T23:51:43.233Z,16.37
2023-03-17T23:55:43.226Z,16.37
2023-03-17T23:59:43.800Z,16.37
